PENO2: Grand Lake O' The Cherokees, Pensacola Dm

Data processed at Thu Mar 08 2018 23:35


All information presented herein is the property of the government of the United States of America and may be revised or deleted at any time without prior notice.
Dissemination of this information without the expressed written consent of the Public Affairs Office, Tulsa District U.S. Army Corps of Engineers is strictly prohibited.
These data are gathered electronically and, as presented, have not undergone any form of quality control. These data are not guaranteed to be valid or correct.
Go to home page.
Go to station list.

Upstream stations:

Downstream station:
Previous Day
Next Day
Current Day
    
SHEF ID:       PENO2     Lake O' the Cherokees at Langley
STATION TYPE:  RESERVOIR

               PRECIP ELEVATION   STORAGE    INFLOW   RELEASE  AIR-TEMP  WIND-DIRWIND-SPEED REL-HUMID SOLAR-RAD   VOLTAGE  BAT-LOAD
                   in        ft     ac-ft       cfs       cfs         F       deg       mph         %      W/m2      volt      volt
              Ccp-Rev   Ccp-Rev   Ccp-Rev  Regi-Rev  Regi-Rev   Ccp-Rev   Ccp-Rev   Ccp-Rev   Ccp-Rev   Ccp-Rev   Ccp-Rev   Ccp-Rev
(US/Central)
03/06 00:00      0.00    744.38   1489670      5408     11345     44.58    129.20      2.07     40.78      0.00     13.52     12.97
03/06 01:00      0.00    744.37   1489255      5409     11572     43.47    134.62      1.12     46.48      0.00     13.46     12.89
03/06 02:00      0.00    744.35   1488425      4406     11349     42.94    160.05      1.80     43.01      0.00     12.96     12.89
03/06 03:00      0.00    744.34   1488010      4429     11457     41.95    179.91      2.26     47.26      0.00     12.87     12.57
03/06 04:00      0.00    744.32   1487180      3404     11458     41.11    222.69      2.77     45.73      0.00     12.84     12.57
03/06 05:00      0.00    744.31   1486765      3405     11461     40.62    230.31      3.04     42.65      0.00     12.81     12.49
03/06 06:00      0.00    744.29   1485935      2402     11466     38.48    205.31      1.83     49.96      0.00     12.79     12.49
03/06 07:00      0.00    744.27   1485105      2403     11353     38.50    185.45      2.18     48.12      0.95     12.77     12.49
03/06 08:00      0.00    744.25   1484275      1387     11463     41.22    176.29      3.39     40.05    128.13     12.76     12.41
03/06 09:00      0.00    744.23   1483445      1374     11466     44.87    215.09      4.82     35.53    331.36     12.75     12.41
03/06 10:00      0.00    744.17   1480955      1384     11364     49.19    257.47     12.51     23.70    513.95     12.75     12.41
03/06 11:00      0.00    744.15   1480125      4420     11587     51.26    265.46     16.10     19.82    653.32     12.74     12.41
03/06 12:00      0.00    744.17   1480955      6452     11254     52.70    264.71     17.97     18.76    751.01     12.73     12.41
03/06 13:00      0.00    744.18   1481370      6400     11577     54.84    273.34     19.57     16.14    773.59     12.72     12.41
03/06 14:00      0.00    744.18   1481370      7744     11584     54.73    274.55     18.83     17.50    724.52     12.71     12.41
03/06 15:00      0.00    744.16   1480540      9088     11143     54.70    276.96     19.25     17.74    554.22     12.70     12.41
03/06 16:00      0.00    744.26   1484690      7384     11459     51.82    304.18     21.67     27.57    488.53     12.68     12.41
03/06 17:00      0.00    744.25   1484275      9348     11572     48.58    307.07     22.69     35.59    251.07     12.66     12.41
03/06 18:00      0.00    744.14   1479710      9916     11248     44.20    308.53     22.82     43.53     55.46     12.64     12.41
03/06 19:00      0.00    744.17   1480955      9089     11467     41.45    306.99     19.03     45.93      0.17     12.63     12.33
03/06 20:00      0.00    744.18   1481370     10010     11250     39.88    300.61     11.50     45.91      0.00     12.61     12.33
03/06 21:00      0.00    744.13   1479295      8395     11592     38.66    300.76     10.32     47.92      0.00     12.60     12.33
03/06 22:00      0.00    744.14   1479710      8447     11365     37.99    310.35     15.04     52.07      0.00     12.58     12.33
03/06 23:00      0.00    744.11   1478465      7658     11363     36.18    300.23      9.11     54.40      0.00     12.57     12.25